sensor_id;sensor_type;location;lat;lon;timestamp;temperature;humidity
44047;DHT22;29713;-33.888;151.150;2023-03-21T00:01:00;21.60;99.90
44047;DHT22;29713;-33.888;151.150;2023-03-21T00:03:32;21.70;99.90
44047;DHT22;29713;-33.888;151.150;2023-03-21T00:06:05;21.70;99.90
44047;DHT22;29713;-33.888;151.150;2023-03-21T00:08:33;21.80;99.90
44047;DHT22;29713;-33.888;151.150;2023-03-21T00:11:02;21.80;99.90
44047;DHT22;29713;-33.888;151.150;2023-03-21T00:13:30;21.80;99.90
44047;DHT22;29713;-33.888;151.150;2023-03-21T00:16:04;21.90;99.90
44047;DHT22;29713;-33.888;151.150;2023-03-21T00:18:32;22.00;99.90
44047;DHT22;29713;-33.888;151.150;2023-03-21T00:21:05;22.00;99.90
44047;DHT22;29713;-33.888;151.150;2023-03-21T00:23:33;22.00;99.90
44047;DHT22;29713;-33.888;151.150;2023-03-21T00:26:00;22.00;99.90
44047;DHT22;29713;-33.888;151.150;2023-03-21T00:28:28;22.00;99.90
44047;DHT22;29713;-33.888;151.150;2023-03-21T00:30:59;22.00;99.90
44047;DHT22;29713;-33.888;151.150;2023-03-21T00:33:26;22.00;99.90
44047;DHT22;29713;-33.888;151.150;2023-03-21T00:35:54;22.00;99.90
44047;DHT22;29713;-33.888;151.150;2023-03-21T00:38:22;22.00;99.90
44047;DHT22;29713;-33.888;151.150;2023-03-21T00:40:50;22.10;99.90
44047;DHT22;29713;-33.888;151.150;2023-03-21T00:43:18;22.10;99.90
44047;DHT22;29713;-33.888;151.150;2023-03-21T00:45:50;22.00;99.90
44047;DHT22;29713;-33.888;151.150;2023-03-21T00:48:18;22.00;99.90
44047;DHT22;29713;-33.888;151.150;2023-03-21T00:50:51;22.00;99.90
44047;DHT22;29713;-33.888;151.150;2023-03-21T00:53:18;22.00;99.90
44047;DHT22;29713;-33.888;151.150;2023-03-21T00:55:49;22.10;99.90
44047;DHT22;29713;-33.888;151.150;2023-03-21T00:58:16;22.10;99.90
44047;DHT22;29713;-33.888;151.150;2023-03-21T01:00:44;22.00;99.90
44047;DHT22;29713;-33.888;151.150;2023-03-21T01:03:15;22.10;99.90
44047;DHT22;29713;-33.888;151.150;2023-03-21T01:05:45;22.20;99.90
44047;DHT22;29713;-33.888;151.150;2023-03-21T01:08:39;22.30;99.90
44047;DHT22;29713;-33.888;151.150;2023-03-21T01:11:20;22.30;99.90
44047;DHT22;29713;-33.888;151.150;2023-03-21T01:13:48;22.50;99.90
44047;DHT22;29713;-33.888;151.150;2023-03-21T01:16:15;22.60;99.90
44047;DHT22;29713;-33.888;151.150;2023-03-21T01:18:43;22.60;99.90
44047;DHT22;29713;-33.888;151.150;2023-03-21T01:21:12;22.60;99.90
44047;DHT22;29713;-33.888;151.150;2023-03-21T01:23:41;22.60;99.90
44047;DHT22;29713;-33.888;151.150;2023-03-21T01:26:10;22.60;99.90
44047;DHT22;29713;-33.888;151.150;2023-03-21T01:28:39;22.60;99.90
44047;DHT22;29713;-33.888;151.150;2023-03-21T01:31:09;22.70;99.90
44047;DHT22;29713;-33.888;151.150;2023-03-21T01:33:37;22.80;99.90
44047;DHT22;29713;-33.888;151.150;2023-03-21T01:36:08;22.80;99.90
44047;DHT22;29713;-33.888;151.150;2023-03-21T01:38:42;22.80;99.90
44047;DHT22;29713;-33.888;151.150;2023-03-21T01:41:27;22.80;99.90
44047;DHT22;29713;-33.888;151.150;2023-03-21T01:43:54;22.80;99.90
44047;DHT22;29713;-33.888;151.150;2023-03-21T01:46:43;22.80;99.90
44047;DHT22;29713;-33.888;151.150;2023-03-21T01:51:51;22.60;99.90
44047;DHT22;29713;-33.888;151.150;2023-03-21T01:54:26;22.70;99.90
44047;DHT22;29713;-33.888;151.150;2023-03-21T01:56:56;22.70;99.90
44047;DHT22;29713;-33.888;151.150;2023-03-21T02:02:06;22.60;99.90
44047;DHT22;29713;-33.888;151.150;2023-03-21T02:04:37;22.50;99.90
44047;DHT22;29713;-33.888;151.150;2023-03-21T02:07:12;22.50;99.90
44047;DHT22;29713;-33.888;151.150;2023-03-21T02:09:46;22.50;99.90
44047;DHT22;29713;-33.888;151.150;2023-03-21T02:12:14;22.50;99.90
44047;DHT22;29713;-33.888;151.150;2023-03-21T02:14:47;22.50;99.90
44047;DHT22;29713;-33.888;151.150;2023-03-21T02:31:17;22.50;99.90
44047;DHT22;29713;-33.888;151.150;2023-03-21T02:42:59;22.80;99.90
44047;DHT22;29713;-33.888;151.150;2023-03-21T02:48:17;23.10;99.90
44047;DHT22;29713;-33.888;151.150;2023-03-21T02:50:53;23.30;99.90
44047;DHT22;29713;-33.888;151.150;2023-03-21T02:53:27;23.30;99.90
44047;DHT22;29713;-33.888;151.150;2023-03-21T02:55:57;23.40;99.90
44047;DHT22;29713;-33.888;151.150;2023-03-21T02:58:27;23.40;99.90
44047;DHT22;29713;-33.888;151.150;2023-03-21T03:00:56;23.50;99.90
44047;DHT22;29713;-33.888;151.150;2023-03-21T03:03:23;23.50;99.90
44047;DHT22;29713;-33.888;151.150;2023-03-21T03:05:54;23.60;99.90
44047;DHT22;29713;-33.888;151.150;2023-03-21T03:11:36;23.80;99.90
44047;DHT22;29713;-33.888;151.150;2023-03-21T03:14:26;23.90;99.90
44047;DHT22;29713;-33.888;151.150;2023-03-21T03:19:53;24.30;99.90
44047;DHT22;29713;-33.888;151.150;2023-03-21T03:23:20;24.80;99.90
44047;DHT22;29713;-33.888;151.150;2023-03-21T03:25:26;25.50;99.90
44047;DHT22;29713;-33.888;151.150;2023-03-21T03:27:56;26.10;99.90
44047;DHT22;29713;-33.888;151.150;2023-03-21T03:30:25;26.30;99.90
44047;DHT22;29713;-33.888;151.150;2023-03-21T03:32:57;26.40;99.90
44047;DHT22;29713;-33.888;151.150;2023-03-21T03:35:28;26.50;99.90
44047;DHT22;29713;-33.888;151.150;2023-03-21T03:37:59;26.30;99.90
44047;DHT22;29713;-33.888;151.150;2023-03-21T03:40:44;26.20;99.90
44047;DHT22;29713;-33.888;151.150;2023-03-21T03:43:33;26.00;99.90
44047;DHT22;29713;-33.888;151.150;2023-03-21T03:46:15;25.60;99.90
44047;DHT22;29713;-33.888;151.150;2023-03-21T03:48:51;25.20;99.90
44047;DHT22;29713;-33.888;151.150;2023-03-21T03:51:25;25.00;99.90
44047;DHT22;29713;-33.888;151.150;2023-03-21T03:54:02;24.60;99.90
44047;DHT22;29713;-33.888;151.150;2023-03-21T03:56:32;24.30;99.90
44047;DHT22;29713;-33.888;151.150;2023-03-21T03:59:02;24.10;99.90
44047;DHT22;29713;-33.888;151.150;2023-03-21T04:01:30;23.90;99.90
44047;DHT22;29713;-33.888;151.150;2023-03-21T04:03:58;23.80;99.90
44047;DHT22;29713;-33.888;151.150;2023-03-21T04:06:26;23.70;99.90
44047;DHT22;29713;-33.888;151.150;2023-03-21T04:08:55;23.60;99.90
44047;DHT22;29713;-33.888;151.150;2023-03-21T04:11:22;23.50;99.90
44047;DHT22;29713;-33.888;151.150;2023-03-21T04:13:50;23.50;99.90
44047;DHT22;29713;-33.888;151.150;2023-03-21T04:16:17;23.50;99.90
44047;DHT22;29713;-33.888;151.150;2023-03-21T04:18:44;23.50;99.90
44047;DHT22;29713;-33.888;151.150;2023-03-21T04:21:13;23.50;99.90
44047;DHT22;29713;-33.888;151.150;2023-03-21T04:23:41;23.60;99.90
44047;DHT22;29713;-33.888;151.150;2023-03-21T04:26:08;23.60;99.90
44047;DHT22;29713;-33.888;151.150;2023-03-21T04:28:36;23.70;99.90
44047;DHT22;29713;-33.888;151.150;2023-03-21T04:31:06;23.60;99.90
44047;DHT22;29713;-33.888;151.150;2023-03-21T04:33:38;23.60;99.90
44047;DHT22;29713;-33.888;151.150;2023-03-21T04:36:07;23.70;99.90
44047;DHT22;29713;-33.888;151.150;2023-03-21T04:38:35;23.70;99.90
44047;DHT22;29713;-33.888;151.150;2023-03-21T04:41:02;23.70;99.90
44047;DHT22;29713;-33.888;151.150;2023-03-21T04:43:30;23.70;99.90
44047;DHT22;29713;-33.888;151.150;2023-03-21T04:45:57;23.60;99.90
44047;DHT22;29713;-33.888;151.150;2023-03-21T04:48:25;23.60;99.90
44047;DHT22;29713;-33.888;151.150;2023-03-21T04:50:53;23.60;99.90
44047;DHT22;29713;-33.888;151.150;2023-03-21T04:53:20;23.50;99.90
44047;DHT22;29713;-33.888;151.150;2023-03-21T04:55:48;23.50;99.90
44047;DHT22;29713;-33.888;151.150;2023-03-21T04:58:15;23.40;99.90
44047;DHT22;29713;-33.888;151.150;2023-03-21T05:00:43;23.40;99.90
44047;DHT22;29713;-33.888;151.150;2023-03-21T05:03:10;23.50;99.90
44047;DHT22;29713;-33.888;151.150;2023-03-21T05:05:45;23.40;99.90
44047;DHT22;29713;-33.888;151.150;2023-03-21T05:08:14;23.40;99.90
44047;DHT22;29713;-33.888;151.150;2023-03-21T05:10:42;23.40;99.90
44047;DHT22;29713;-33.888;151.150;2023-03-21T05:13:09;23.40;99.90
44047;DHT22;29713;-33.888;151.150;2023-03-21T05:15:36;23.40;99.90
44047;DHT22;29713;-33.888;151.150;2023-03-21T05:18:04;23.30;99.90
44047;DHT22;29713;-33.888;151.150;2023-03-21T05:20:40;23.40;99.90
44047;DHT22;29713;-33.888;151.150;2023-03-21T05:23:12;23.40;99.90
44047;DHT22;29713;-33.888;151.150;2023-03-21T05:25:43;23.40;99.90
44047;DHT22;29713;-33.888;151.150;2023-03-21T05:28:11;23.40;99.90
44047;DHT22;29713;-33.888;151.150;2023-03-21T05:30:38;23.30;99.90
44047;DHT22;29713;-33.888;151.150;2023-03-21T05:33:06;23.30;99.90
44047;DHT22;29713;-33.888;151.150;2023-03-21T05:35:33;23.30;99.90
44047;DHT22;29713;-33.888;151.150;2023-03-21T05:38:00;23.30;99.90
44047;DHT22;29713;-33.888;151.150;2023-03-21T05:40:28;23.20;99.90
44047;DHT22;29713;-33.888;151.150;2023-03-21T05:42:55;23.20;99.90
44047;DHT22;29713;-33.888;151.150;2023-03-21T05:45:23;23.00;99.90
44047;DHT22;29713;-33.888;151.150;2023-03-21T05:47:51;23.00;99.90
44047;DHT22;29713;-33.888;151.150;2023-03-21T05:50:18;23.00;99.90
44047;DHT22;29713;-33.888;151.150;2023-03-21T05:52:46;23.00;99.90
44047;DHT22;29713;-33.888;151.150;2023-03-21T05:55:13;22.90;99.90
44047;DHT22;29713;-33.888;151.150;2023-03-21T05:57:41;23.00;99.90
44047;DHT22;29713;-33.888;151.150;2023-03-21T06:00:09;23.00;99.90
44047;DHT22;29713;-33.888;151.150;2023-03-21T06:02:37;22.90;99.90
44047;DHT22;29713;-33.888;151.150;2023-03-21T06:05:05;22.90;99.90
44047;DHT22;29713;-33.888;151.150;2023-03-21T06:07:33;22.90;99.90
44047;DHT22;29713;-33.888;151.150;2023-03-21T06:10:04;22.80;99.90
44047;DHT22;29713;-33.888;151.150;2023-03-21T06:12:32;22.70;99.90
44047;DHT22;29713;-33.888;151.150;2023-03-21T06:14:59;22.70;99.90
44047;DHT22;29713;-33.888;151.150;2023-03-21T06:17:27;22.70;99.90
44047;DHT22;29713;-33.888;151.150;2023-03-21T06:19:54;22.60;99.90
44047;DHT22;29713;-33.888;151.150;2023-03-21T06:22:22;22.50;99.90
44047;DHT22;29713;-33.888;151.150;2023-03-21T06:24:49;22.50;99.90
44047;DHT22;29713;-33.888;151.150;2023-03-21T06:27:16;22.60;99.90
44047;DHT22;29713;-33.888;151.150;2023-03-21T06:29:44;22.60;99.90
44047;DHT22;29713;-33.888;151.150;2023-03-21T06:32:12;22.50;99.90
44047;DHT22;29713;-33.888;151.150;2023-03-21T06:34:39;22.50;99.90
44047;DHT22;29713;-33.888;151.150;2023-03-21T06:37:07;22.40;99.90
44047;DHT22;29713;-33.888;151.150;2023-03-21T06:39:35;22.30;99.90
44047;DHT22;29713;-33.888;151.150;2023-03-21T06:42:02;22.20;99.90
44047;DHT22;29713;-33.888;151.150;2023-03-21T06:44:30;22.20;99.90
44047;DHT22;29713;-33.888;151.150;2023-03-21T06:46:58;22.10;99.90
44047;DHT22;29713;-33.888;151.150;2023-03-21T06:49:26;22.10;99.90
44047;DHT22;29713;-33.888;151.150;2023-03-21T06:51:53;22.00;99.90
44047;DHT22;29713;-33.888;151.150;2023-03-21T06:54:21;22.00;99.90
44047;DHT22;29713;-33.888;151.150;2023-03-21T06:56:49;22.00;99.90
44047;DHT22;29713;-33.888;151.150;2023-03-21T06:59:16;22.00;99.90
44047;DHT22;29713;-33.888;151.150;2023-03-21T07:01:44;21.90;99.90
44047;DHT22;29713;-33.888;151.150;2023-03-21T07:04:11;21.90;99.90
44047;DHT22;29713;-33.888;151.150;2023-03-21T07:06:38;21.90;99.90
44047;DHT22;29713;-33.888;151.150;2023-03-21T07:09:06;21.90;99.90
44047;DHT22;29713;-33.888;151.150;2023-03-21T07:11:35;21.80;99.90
44047;DHT22;29713;-33.888;151.150;2023-03-21T07:14:03;21.80;99.90
44047;DHT22;29713;-33.888;151.150;2023-03-21T07:16:32;21.80;99.90
44047;DHT22;29713;-33.888;151.150;2023-03-21T07:18:59;21.80;99.90
44047;DHT22;29713;-33.888;151.150;2023-03-21T07:21:26;21.80;99.90
44047;DHT22;29713;-33.888;151.150;2023-03-21T07:23:54;21.80;99.90
44047;DHT22;29713;-33.888;151.150;2023-03-21T07:26:21;21.80;99.90
44047;DHT22;29713;-33.888;151.150;2023-03-21T07:28:49;21.80;99.90
44047;DHT22;29713;-33.888;151.150;2023-03-21T07:31:16;21.80;99.90
44047;DHT22;29713;-33.888;151.150;2023-03-21T07:33:45;21.80;99.90
44047;DHT22;29713;-33.888;151.150;2023-03-21T07:36:13;21.70;99.90
44047;DHT22;29713;-33.888;151.150;2023-03-21T07:38:43;21.70;99.90
44047;DHT22;29713;-33.888;151.150;2023-03-21T07:41:11;21.70;99.90
44047;DHT22;29713;-33.888;151.150;2023-03-21T07:43:39;21.80;99.90
44047;DHT22;29713;-33.888;151.150;2023-03-21T07:46:06;21.80;99.90
44047;DHT22;29713;-33.888;151.150;2023-03-21T07:48:33;21.80;99.90
44047;DHT22;29713;-33.888;151.150;2023-03-21T07:51:01;21.70;99.90
44047;DHT22;29713;-33.888;151.150;2023-03-21T07:53:28;21.70;99.90
44047;DHT22;29713;-33.888;151.150;2023-03-21T07:55:56;21.70;99.90
44047;DHT22;29713;-33.888;151.150;2023-03-21T07:58:24;21.60;99.90
44047;DHT22;29713;-33.888;151.150;2023-03-21T08:00:52;21.60;99.90
44047;DHT22;29713;-33.888;151.150;2023-03-21T08:03:22;21.50;99.90
44047;DHT22;29713;-33.888;151.150;2023-03-21T08:05:49;21.50;99.90
44047;DHT22;29713;-33.888;151.150;2023-03-21T08:08:17;21.50;99.90
44047;DHT22;29713;-33.888;151.150;2023-03-21T08:10:44;21.50;99.90
44047;DHT22;29713;-33.888;151.150;2023-03-21T08:13:12;21.40;99.90
44047;DHT22;29713;-33.888;151.150;2023-03-21T08:15:39;21.50;99.90
44047;DHT22;29713;-33.888;151.150;2023-03-21T08:18:08;21.40;99.90
44047;DHT22;29713;-33.888;151.150;2023-03-21T08:20:38;21.40;99.90
44047;DHT22;29713;-33.888;151.150;2023-03-21T08:23:05;21.40;99.90
44047;DHT22;29713;-33.888;151.150;2023-03-21T08:25:32;21.40;99.90
44047;DHT22;29713;-33.888;151.150;2023-03-21T08:28:00;21.40;99.90
44047;DHT22;29713;-33.888;151.150;2023-03-21T08:30:28;21.40;99.90
44047;DHT22;29713;-33.888;151.150;2023-03-21T08:32:57;21.40;99.90
44047;DHT22;29713;-33.888;151.150;2023-03-21T08:35:25;21.40;99.90
44047;DHT22;29713;-33.888;151.150;2023-03-21T08:37:52;21.40;99.90
44047;DHT22;29713;-33.888;151.150;2023-03-21T08:40:20;21.40;99.90
44047;DHT22;29713;-33.888;151.150;2023-03-21T08:42:47;21.40;99.90
44047;DHT22;29713;-33.888;151.150;2023-03-21T08:45:16;21.40;99.90
44047;DHT22;29713;-33.888;151.150;2023-03-21T08:47:45;21.40;99.90
44047;DHT22;29713;-33.888;151.150;2023-03-21T08:50:15;21.30;99.90
44047;DHT22;29713;-33.888;151.150;2023-03-21T08:52:43;21.30;99.90
44047;DHT22;29713;-33.888;151.150;2023-03-21T08:55:11;21.30;99.90
44047;DHT22;29713;-33.888;151.150;2023-03-21T08:57:39;21.30;99.90
44047;DHT22;29713;-33.888;151.150;2023-03-21T09:00:10;21.40;99.90
44047;DHT22;29713;-33.888;151.150;2023-03-21T09:02:44;21.30;99.90
44047;DHT22;29713;-33.888;151.150;2023-03-21T09:05:12;21.30;99.90
44047;DHT22;29713;-33.888;151.150;2023-03-21T09:07:41;21.30;99.90
44047;DHT22;29713;-33.888;151.150;2023-03-21T09:10:11;21.30;99.90
44047;DHT22;29713;-33.888;151.150;2023-03-21T09:12:39;21.30;99.90
44047;DHT22;29713;-33.888;151.150;2023-03-21T09:15:08;21.40;99.90
44047;DHT22;29713;-33.888;151.150;2023-03-21T09:17:38;21.30;99.90
44047;DHT22;29713;-33.888;151.150;2023-03-21T09:20:13;21.40;99.90
44047;DHT22;29713;-33.888;151.150;2023-03-21T09:22:49;21.40;99.90
44047;DHT22;29713;-33.888;151.150;2023-03-21T09:25:20;21.40;99.90
44047;DHT22;29713;-33.888;151.150;2023-03-21T09:27:48;21.40;99.90
44047;DHT22;29713;-33.888;151.150;2023-03-21T09:30:17;21.40;99.90
44047;DHT22;29713;-33.888;151.150;2023-03-21T09:32:45;21.30;99.90
44047;DHT22;29713;-33.888;151.150;2023-03-21T09:35:15;21.30;99.90
44047;DHT22;29713;-33.888;151.150;2023-03-21T09:37:45;21.30;99.90
44047;DHT22;29713;-33.888;151.150;2023-03-21T09:40:17;21.30;99.90
44047;DHT22;29713;-33.888;151.150;2023-03-21T09:45:58;21.30;99.90
44047;DHT22;29713;-33.888;151.150;2023-03-21T09:48:37;21.30;99.90
44047;DHT22;29713;-33.888;151.150;2023-03-21T09:51:11;21.30;99.90
44047;DHT22;29713;-33.888;151.150;2023-03-21T09:53:41;21.30;99.90
44047;DHT22;29713;-33.888;151.150;2023-03-21T09:56:10;21.30;99.90
44047;DHT22;29713;-33.888;151.150;2023-03-21T10:01:21;21.30;99.90
44047;DHT22;29713;-33.888;151.150;2023-03-21T10:04:03;21.30;99.90
44047;DHT22;29713;-33.888;151.150;2023-03-21T10:06:36;21.40;99.90
44047;DHT22;29713;-33.888;151.150;2023-03-21T10:09:18;21.40;99.90
44047;DHT22;29713;-33.888;151.150;2023-03-21T10:12:28;21.40;99.90
44047;DHT22;29713;-33.888;151.150;2023-03-21T10:14:51;21.40;99.90
44047;DHT22;29713;-33.888;151.150;2023-03-21T10:20:17;21.40;99.90
44047;DHT22;29713;-33.888;151.150;2023-03-21T10:22:43;21.40;99.90
44047;DHT22;29713;-33.888;151.150;2023-03-21T10:25:19;21.40;99.90
44047;DHT22;29713;-33.888;151.150;2023-03-21T10:27:47;21.40;99.90
44047;DHT22;29713;-33.888;151.150;2023-03-21T10:30:26;21.40;99.90
44047;DHT22;29713;-33.888;151.150;2023-03-21T10:32:56;21.50;99.90
44047;DHT22;29713;-33.888;151.150;2023-03-21T10:35:27;21.40;99.90
44047;DHT22;29713;-33.888;151.150;2023-03-21T10:37:57;21.50;99.90
44047;DHT22;29713;-33.888;151.150;2023-03-21T10:40:24;21.50;99.90
44047;DHT22;29713;-33.888;151.150;2023-03-21T10:42:55;21.50;99.90
44047;DHT22;29713;-33.888;151.150;2023-03-21T10:45:23;21.50;99.90
44047;DHT22;29713;-33.888;151.150;2023-03-21T10:47:50;21.50;99.90
44047;DHT22;29713;-33.888;151.150;2023-03-21T10:50:19;21.50;99.90
44047;DHT22;29713;-33.888;151.150;2023-03-21T10:52:55;21.50;99.90
44047;DHT22;29713;-33.888;151.150;2023-03-21T10:55:30;21.50;99.90
44047;DHT22;29713;-33.888;151.150;2023-03-21T10:58:06;21.50;99.90
44047;DHT22;29713;-33.888;151.150;2023-03-21T11:00:42;21.50;99.90
44047;DHT22;29713;-33.888;151.150;2023-03-21T11:03:43;21.50;99.90
44047;DHT22;29713;-33.888;151.150;2023-03-21T11:08:56;21.60;99.90
44047;DHT22;29713;-33.888;151.150;2023-03-21T11:11:36;21.50;99.90
44047;DHT22;29713;-33.888;151.150;2023-03-21T11:14:07;21.60;99.90
44047;DHT22;29713;-33.888;151.150;2023-03-21T11:16:42;21.60;99.90
44047;DHT22;29713;-33.888;151.150;2023-03-21T11:19:16;21.50;99.90
44047;DHT22;29713;-33.888;151.150;2023-03-21T11:21:44;21.50;99.90
44047;DHT22;29713;-33.888;151.150;2023-03-21T11:24:14;21.50;99.90
44047;DHT22;29713;-33.888;151.150;2023-03-21T11:26:44;21.50;99.90
44047;DHT22;29713;-33.888;151.150;2023-03-21T11:29:35;21.40;99.90
44047;DHT22;29713;-33.888;151.150;2023-03-21T11:32:21;21.40;99.90
44047;DHT22;29713;-33.888;151.150;2023-03-21T11:34:58;21.40;99.90
44047;DHT22;29713;-33.888;151.150;2023-03-21T11:40:19;21.30;99.90
44047;DHT22;29713;-33.888;151.150;2023-03-21T11:42:49;21.30;99.90
44047;DHT22;29713;-33.888;151.150;2023-03-21T11:45:32;21.30;99.90
44047;DHT22;29713;-33.888;151.150;2023-03-21T11:48:01;21.30;99.90
44047;DHT22;29713;-33.888;151.150;2023-03-21T11:50:41;21.20;99.90
44047;DHT22;29713;-33.888;151.150;2023-03-21T12:15:47;21.00;99.90
44047;DHT22;29713;-33.888;151.150;2023-03-21T12:37:33;21.00;99.90
44047;DHT22;29713;-33.888;151.150;2023-03-21T12:45:46;21.00;99.90
44047;DHT22;29713;-33.888;151.150;2023-03-21T12:51:11;21.00;99.90
44047;DHT22;29713;-33.888;151.150;2023-03-21T12:56:59;21.00;99.90
44047;DHT22;29713;-33.888;151.150;2023-03-21T12:59:49;21.00;99.90
44047;DHT22;29713;-33.888;151.150;2023-03-21T13:02:37;20.90;99.90
44047;DHT22;29713;-33.888;151.150;2023-03-21T13:10:55;20.80;99.90
44047;DHT22;29713;-33.888;151.150;2023-03-21T13:27:01;20.90;99.90
44047;DHT22;29713;-33.888;151.150;2023-03-21T13:29:40;20.90;99.90
44047;DHT22;29713;-33.888;151.150;2023-03-21T13:35:42;20.90;99.90
44047;DHT22;29713;-33.888;151.150;2023-03-21T13:40:47;20.90;99.90
44047;DHT22;29713;-33.888;151.150;2023-03-21T13:43:54;20.90;99.90
44047;DHT22;29713;-33.888;151.150;2023-03-21T13:51:39;21.00;99.90
44047;DHT22;29713;-33.888;151.150;2023-03-21T13:59:41;20.90;99.90
44047;DHT22;29713;-33.888;151.150;2023-03-21T14:02:20;21.00;99.90
44047;DHT22;29713;-33.888;151.150;2023-03-21T14:05:34;21.00;99.90
44047;DHT22;29713;-33.888;151.150;2023-03-21T14:07:44;20.90;99.90
44047;DHT22;29713;-33.888;151.150;2023-03-21T14:12:52;20.90;99.90
44047;DHT22;29713;-33.888;151.150;2023-03-21T14:15:36;20.90;99.90
44047;DHT22;29713;-33.888;151.150;2023-03-21T14:18:05;20.80;99.90
44047;DHT22;29713;-33.888;151.150;2023-03-21T14:20:35;20.80;99.90
44047;DHT22;29713;-33.888;151.150;2023-03-21T14:23:14;20.80;99.90
44047;DHT22;29713;-33.888;151.150;2023-03-21T14:25:43;20.80;99.90
44047;DHT22;29713;-33.888;151.150;2023-03-21T14:28:26;20.80;99.90
44047;DHT22;29713;-33.888;151.150;2023-03-21T14:30:57;20.80;99.90
44047;DHT22;29713;-33.888;151.150;2023-03-21T14:33:34;20.80;99.90
44047;DHT22;29713;-33.888;151.150;2023-03-21T14:36:08;20.90;99.90
44047;DHT22;29713;-33.888;151.150;2023-03-21T14:38:38;20.80;99.90
44047;DHT22;29713;-33.888;151.150;2023-03-21T14:41:28;20.80;99.90
44047;DHT22;29713;-33.888;151.150;2023-03-21T14:44:10;20.80;99.90
44047;DHT22;29713;-33.888;151.150;2023-03-21T14:46:38;20.80;99.90
44047;DHT22;29713;-33.888;151.150;2023-03-21T14:49:33;20.80;99.90
44047;DHT22;29713;-33.888;151.150;2023-03-21T14:52:10;20.80;99.90
44047;DHT22;29713;-33.888;151.150;2023-03-21T14:54:40;20.80;99.90
44047;DHT22;29713;-33.888;151.150;2023-03-21T14:57:12;20.80;99.90
44047;DHT22;29713;-33.888;151.150;2023-03-21T14:59:40;20.70;99.90
44047;DHT22;29713;-33.888;151.150;2023-03-21T15:02:27;20.70;99.90
44047;DHT22;29713;-33.888;151.150;2023-03-21T15:05:07;20.70;99.90
44047;DHT22;29713;-33.888;151.150;2023-03-21T15:07:36;20.70;99.90
44047;DHT22;29713;-33.888;151.150;2023-03-21T15:10:15;20.70;99.90
44047;DHT22;29713;-33.888;151.150;2023-03-21T15:12:56;20.70;99.90
44047;DHT22;29713;-33.888;151.150;2023-03-21T15:15:26;20.70;99.90
44047;DHT22;29713;-33.888;151.150;2023-03-21T15:17:57;20.70;99.90
44047;DHT22;29713;-33.888;151.150;2023-03-21T15:20:29;20.70;99.90
44047;DHT22;29713;-33.888;151.150;2023-03-21T15:23:02;20.70;99.90
44047;DHT22;29713;-33.888;151.150;2023-03-21T15:25:33;20.70;99.90
44047;DHT22;29713;-33.888;151.150;2023-03-21T15:28:02;20.70;99.90
44047;DHT22;29713;-33.888;151.150;2023-03-21T15:30:31;20.70;99.90
44047;DHT22;29713;-33.888;151.150;2023-03-21T15:33:06;20.80;99.90
44047;DHT22;29713;-33.888;151.150;2023-03-21T15:35:40;20.80;99.90
44047;DHT22;29713;-33.888;151.150;2023-03-21T15:38:31;20.70;99.90
44047;DHT22;29713;-33.888;151.150;2023-03-21T15:43:47;20.70;99.90
44047;DHT22;29713;-33.888;151.150;2023-03-21T15:46:17;20.60;99.90
44047;DHT22;29713;-33.888;151.150;2023-03-21T15:54:22;20.50;99.90
44047;DHT22;29713;-33.888;151.150;2023-03-21T15:56:58;20.50;99.90
44047;DHT22;29713;-33.888;151.150;2023-03-21T15:59:33;20.50;99.90
44047;DHT22;29713;-33.888;151.150;2023-03-21T16:02:01;20.40;99.90
44047;DHT22;29713;-33.888;151.150;2023-03-21T16:04:29;20.40;99.90
44047;DHT22;29713;-33.888;151.150;2023-03-21T16:07:00;20.40;99.90
44047;DHT22;29713;-33.888;151.150;2023-03-21T16:09:38;20.40;99.90
44047;DHT22;29713;-33.888;151.150;2023-03-21T16:12:11;20.40;99.90
44047;DHT22;29713;-33.888;151.150;2023-03-21T16:14:39;20.40;99.90
44047;DHT22;29713;-33.888;151.150;2023-03-21T16:17:34;20.40;99.90
44047;DHT22;29713;-33.888;151.150;2023-03-21T16:20:26;20.40;99.90
44047;DHT22;29713;-33.888;151.150;2023-03-21T16:22:53;20.40;99.90
44047;DHT22;29713;-33.888;151.150;2023-03-21T16:25:21;20.40;99.90
44047;DHT22;29713;-33.888;151.150;2023-03-21T16:27:48;20.40;99.90
44047;DHT22;29713;-33.888;151.150;2023-03-21T16:30:19;20.40;99.90
44047;DHT22;29713;-33.888;151.150;2023-03-21T16:32:47;20.40;99.90
44047;DHT22;29713;-33.888;151.150;2023-03-21T16:35:18;20.30;99.90
44047;DHT22;29713;-33.888;151.150;2023-03-21T16:37:46;20.30;99.90
44047;DHT22;29713;-33.888;151.150;2023-03-21T16:40:31;20.30;99.90
44047;DHT22;29713;-33.888;151.150;2023-03-21T16:42:59;20.20;99.90
44047;DHT22;29713;-33.888;151.150;2023-03-21T16:45:27;20.20;99.90
44047;DHT22;29713;-33.888;151.150;2023-03-21T16:47:56;20.20;99.90
44047;DHT22;29713;-33.888;151.150;2023-03-21T16:50:27;20.20;99.90
44047;DHT22;29713;-33.888;151.150;2023-03-21T16:52:56;20.20;99.90
44047;DHT22;29713;-33.888;151.150;2023-03-21T16:55:24;20.20;99.90
44047;DHT22;29713;-33.888;151.150;2023-03-21T16:57:52;20.30;99.90
44047;DHT22;29713;-33.888;151.150;2023-03-21T17:00:25;20.30;99.90
44047;DHT22;29713;-33.888;151.150;2023-03-21T17:02:54;20.30;99.90
44047;DHT22;29713;-33.888;151.150;2023-03-21T17:05:23;20.30;99.90
44047;DHT22;29713;-33.888;151.150;2023-03-21T17:07:55;20.30;99.90
44047;DHT22;29713;-33.888;151.150;2023-03-21T17:10:26;20.30;99.90
44047;DHT22;29713;-33.888;151.150;2023-03-21T17:12:53;20.30;99.90
44047;DHT22;29713;-33.888;151.150;2023-03-21T17:15:21;20.20;99.90
44047;DHT22;29713;-33.888;151.150;2023-03-21T17:17:49;20.30;99.90
44047;DHT22;29713;-33.888;151.150;2023-03-21T17:20:28;20.30;99.90
44047;DHT22;29713;-33.888;151.150;2023-03-21T17:22:57;20.30;99.90
44047;DHT22;29713;-33.888;151.150;2023-03-21T17:25:25;20.30;99.90
44047;DHT22;29713;-33.888;151.150;2023-03-21T17:27:53;20.30;99.90
44047;DHT22;29713;-33.888;151.150;2023-03-21T17:30:29;20.30;99.90
44047;DHT22;29713;-33.888;151.150;2023-03-21T17:32:57;20.30;99.90
44047;DHT22;29713;-33.888;151.150;2023-03-21T17:35:25;20.30;99.90
44047;DHT22;29713;-33.888;151.150;2023-03-21T17:37:52;20.30;99.90
44047;DHT22;29713;-33.888;151.150;2023-03-21T17:40:30;20.30;99.90
44047;DHT22;29713;-33.888;151.150;2023-03-21T17:42:58;20.30;99.90
44047;DHT22;29713;-33.888;151.150;2023-03-21T17:45:27;20.30;99.90